sensor_id;sensor_type;location;lat;lon;timestamp;pressure;altitude;pressure_sealevel;temperature
24586;BMP280;12743;52.262;6.172;2023-07-22T00:01:28;100467.34;;;15.45
24586;BMP280;12743;52.262;6.172;2023-07-22T00:03:55;100459.78;;;15.47
24586;BMP280;12743;52.262;6.172;2023-07-22T00:06:22;100445.34;;;15.41
24586;BMP280;12743;52.262;6.172;2023-07-22T00:08:49;100414.56;;;15.25
24586;BMP280;12743;52.262;6.172;2023-07-22T00:11:16;100415.78;;;15.28
24586;BMP280;12743;52.262;6.172;2023-07-22T00:13:43;100395.31;;;15.25
24586;BMP280;12743;52.262;6.172;2023-07-22T00:16:10;100385.31;;;15.08
24586;BMP280;12743;52.262;6.172;2023-07-22T00:18:37;100297.03;;;14.83
24586;BMP280;12743;52.262;6.172;2023-07-22T00:21:04;100311.25;;;15.04
24586;BMP280;12743;52.262;6.172;2023-07-22T00:23:30;100268.81;;;14.94
24586;BMP280;12743;52.262;6.172;2023-07-22T00:25:57;100376.34;;;15.19
24586;BMP280;12743;52.262;6.172;2023-07-22T00:28:23;100264.19;;;14.84
24586;BMP280;12743;52.262;6.172;2023-07-22T00:30:50;100213.03;;;14.62
24586;BMP280;12743;52.262;6.172;2023-07-22T00:33:20;100199.50;;;14.71
24586;BMP280;12743;52.262;6.172;2023-07-22T00:35:49;100223.31;;;14.74
24586;BMP280;12743;52.262;6.172;2023-07-22T00:38:19;100197.84;;;14.56
24586;BMP280;12743;52.262;6.172;2023-07-22T00:40:46;100193.03;;;14.65
24586;BMP280;12743;52.262;6.172;2023-07-22T00:43:13;100202.50;;;14.73
24586;BMP280;12743;52.262;6.172;2023-07-22T00:45:39;100180.53;;;14.62
24586;BMP280;12743;52.262;6.172;2023-07-22T00:48:07;100196.50;;;14.76
24586;BMP280;12743;52.262;6.172;2023-07-22T00:50:35;100239.59;;;14.80
24586;BMP280;12743;52.262;6.172;2023-07-22T00:53:01;100214.34;;;14.86
24586;BMP280;12743;52.262;6.172;2023-07-22T00:55:28;100274.28;;;15.11
24586;BMP280;12743;52.262;6.172;2023-07-22T00:57:55;100272.34;;;15.05
24586;BMP280;12743;52.262;6.172;2023-07-22T01:00:22;100218.44;;;14.80
24586;BMP280;12743;52.262;6.172;2023-07-22T01:02:49;100213.16;;;14.80
24586;BMP280;12743;52.262;6.172;2023-07-22T01:05:16;100250.34;;;15.01
24586;BMP280;12743;52.262;6.172;2023-07-22T01:07:43;100305.59;;;15.09
24586;BMP280;12743;52.262;6.172;2023-07-22T01:10:13;100274.84;;;14.91
24586;BMP280;12743;52.262;6.172;2023-07-22T01:12:39;100177.91;;;14.62
24586;BMP280;12743;52.262;6.172;2023-07-22T01:15:06;100169.97;;;14.62
24586;BMP280;12743;52.262;6.172;2023-07-22T01:17:37;100207.00;;;14.65
24586;BMP280;12743;52.262;6.172;2023-07-22T01:20:04;100135.09;;;14.45
24586;BMP280;12743;52.262;6.172;2023-07-22T01:22:35;100166.53;;;14.58
24586;BMP280;12743;52.262;6.172;2023-07-22T01:25:02;100137.06;;;14.56
24586;BMP280;12743;52.262;6.172;2023-07-22T01:27:29;100143.53;;;14.58
24586;BMP280;12743;52.262;6.172;2023-07-22T01:29:56;100154.19;;;14.72
24586;BMP280;12743;52.262;6.172;2023-07-22T01:32:22;100146.97;;;14.66
24586;BMP280;12743;52.262;6.172;2023-07-22T01:34:49;100158.00;;;14.75
24586;BMP280;12743;52.262;6.172;2023-07-22T01:37:17;100155.38;;;14.78
24586;BMP280;12743;52.262;6.172;2023-07-22T01:39:43;100189.03;;;14.81
24586;BMP280;12743;52.262;6.172;2023-07-22T01:42:10;100158.00;;;14.78
24586;BMP280;12743;52.262;6.172;2023-07-22T01:44:36;100122.41;;;14.62
24586;BMP280;12743;52.262;6.172;2023-07-22T01:47:03;100096.84;;;14.29
24586;BMP280;12743;52.262;6.172;2023-07-22T01:49:30;100080.22;;;14.28
24586;BMP280;12743;52.262;6.172;2023-07-22T01:51:56;100054.38;;;14.08
24586;BMP280;12743;52.262;6.172;2023-07-22T01:54:23;100065.06;;;14.22
24586;BMP280;12743;52.262;6.172;2023-07-22T01:56:50;100096.50;;;14.37
24586;BMP280;12743;52.262;6.172;2023-07-22T01:59:17;100088.16;;;14.28
24586;BMP280;12743;52.262;6.172;2023-07-22T02:01:43;100063.91;;;14.19
24586;BMP280;12743;52.262;6.172;2023-07-22T02:04:10;100079.78;;;14.23
24586;BMP280;12743;52.262;6.172;2023-07-22T02:06:38;100083.25;;;14.30
24586;BMP280;12743;52.262;6.172;2023-07-22T02:09:05;100096.16;;;14.35
24586;BMP280;12743;52.262;6.172;2023-07-22T02:11:40;100084.34;;;14.22
24586;BMP280;12743;52.262;6.172;2023-07-22T02:14:07;100132.09;;;14.50
24586;BMP280;12743;52.262;6.172;2023-07-22T02:16:37;100122.78;;;14.64
24586;BMP280;12743;52.262;6.172;2023-07-22T02:19:04;100103.03;;;14.50
24586;BMP280;12743;52.262;6.172;2023-07-22T02:21:39;100030.13;;;13.95
24586;BMP280;12743;52.262;6.172;2023-07-22T02:24:05;100085.59;;;14.35
24586;BMP280;12743;52.262;6.172;2023-07-22T02:26:32;100078.63;;;14.20
24586;BMP280;12743;52.262;6.172;2023-07-22T02:28:59;100099.50;;;14.32
24586;BMP280;12743;52.262;6.172;2023-07-22T02:31:25;100077.59;;;14.28
24586;BMP280;12743;52.262;6.172;2023-07-22T02:33:52;100066.56;;;14.19
24586;BMP280;12743;52.262;6.172;2023-07-22T02:36:18;100092.00;;;14.38
24586;BMP280;12743;52.262;6.172;2023-07-22T02:38:45;100104.09;;;14.42
24586;BMP280;12743;52.262;6.172;2023-07-22T02:41:12;100146.50;;;14.57
24586;BMP280;12743;52.262;6.172;2023-07-22T02:43:38;100184.19;;;14.50
24586;BMP280;12743;52.262;6.172;2023-07-22T02:46:07;100129.84;;;14.49
24586;BMP280;12743;52.262;6.172;2023-07-22T02:48:35;100105.69;;;14.50
24586;BMP280;12743;52.262;6.172;2023-07-22T02:51:05;100117.28;;;14.42
24586;BMP280;12743;52.262;6.172;2023-07-22T02:53:33;100146.56;;;14.64
24586;BMP280;12743;52.262;6.172;2023-07-22T02:56:00;100114.78;;;14.53
24586;BMP280;12743;52.262;6.172;2023-07-22T02:58:27;100082.13;;;14.31
24586;BMP280;12743;52.262;6.172;2023-07-22T03:00:54;100053.19;;;14.02
24586;BMP280;12743;52.262;6.172;2023-07-22T03:03:20;100035.00;;;13.93
24586;BMP280;12743;52.262;6.172;2023-07-22T03:05:47;100051.31;;;14.02
24586;BMP280;12743;52.262;6.172;2023-07-22T03:08:14;100059.56;;;14.01
24586;BMP280;12743;52.262;6.172;2023-07-22T03:10:41;100036.53;;;13.94
24586;BMP280;12743;52.262;6.172;2023-07-22T03:13:07;100041.41;;;13.92
24586;BMP280;12743;52.262;6.172;2023-07-22T03:15:34;100052.81;;;14.03
24586;BMP280;12743;52.262;6.172;2023-07-22T03:18:01;100039.19;;;13.98
24586;BMP280;12743;52.262;6.172;2023-07-22T03:20:27;100025.84;;;13.84
24586;BMP280;12743;52.262;6.172;2023-07-22T03:22:54;100040.72;;;13.99
24586;BMP280;12743;52.262;6.172;2023-07-22T03:25:21;100091.38;;;14.11
24586;BMP280;12743;52.262;6.172;2023-07-22T03:27:47;100040.69;;;13.95
24586;BMP280;12743;52.262;6.172;2023-07-22T03:30:15;100057.34;;;14.03
24586;BMP280;12743;52.262;6.172;2023-07-22T03:32:46;100014.47;;;13.76
24586;BMP280;12743;52.262;6.172;2023-07-22T03:35:19;99995.09;;;13.61
24586;BMP280;12743;52.262;6.172;2023-07-22T03:37:46;99997.41;;;13.63
24586;BMP280;12743;52.262;6.172;2023-07-22T03:40:12;100014.16;;;13.81
24586;BMP280;12743;52.262;6.172;2023-07-22T03:42:48;100042.56;;;13.95
24586;BMP280;12743;52.262;6.172;2023-07-22T03:45:15;100077.41;;;14.11
24586;BMP280;12743;52.262;6.172;2023-07-22T03:47:44;100036.97;;;14.03
24586;BMP280;12743;52.262;6.172;2023-07-22T03:50:11;100046.78;;;14.03
24586;BMP280;12743;52.262;6.172;2023-07-22T03:52:37;100035.78;;;13.97
24586;BMP280;12743;52.262;6.172;2023-07-22T03:55:04;100025.06;;;13.83
24586;BMP280;12743;52.262;6.172;2023-07-22T03:57:34;100024.31;;;13.79
24586;BMP280;12743;52.262;6.172;2023-07-22T04:00:02;100028.22;;;13.92
24586;BMP280;12743;52.262;6.172;2023-07-22T04:02:38;100028.63;;;13.94
24586;BMP280;12743;52.262;6.172;2023-07-22T04:05:05;100009.50;;;13.71
24586;BMP280;12743;52.262;6.172;2023-07-22T04:07:32;100010.69;;;13.77
24586;BMP280;12743;52.262;6.172;2023-07-22T04:09:58;100005.25;;;13.59
24586;BMP280;12743;52.262;6.172;2023-07-22T04:12:25;100017.50;;;13.78
24586;BMP280;12743;52.262;6.172;2023-07-22T04:14:52;100043.63;;;13.90
24586;BMP280;12743;52.262;6.172;2023-07-22T04:17:19;100033.53;;;13.96
24586;BMP280;12743;52.262;6.172;2023-07-22T04:19:46;100021.69;;;13.79
24586;BMP280;12743;52.262;6.172;2023-07-22T04:22:13;99999.78;;;13.79
24586;BMP280;12743;52.262;6.172;2023-07-22T04:24:39;100016.41;;;13.83
24586;BMP280;12743;52.262;6.172;2023-07-22T04:27:06;100006.59;;;13.83
24586;BMP280;12743;52.262;6.172;2023-07-22T04:29:33;100021.47;;;13.98
24586;BMP280;12743;52.262;6.172;2023-07-22T04:32:00;100012.78;;;13.98
24586;BMP280;12743;52.262;6.172;2023-07-22T04:34:30;100015.81;;;14.00
24586;BMP280;12743;52.262;6.172;2023-07-22T04:36:58;99995.69;;;13.81
24586;BMP280;12743;52.262;6.172;2023-07-22T04:39:24;99992.63;;;13.76
24586;BMP280;12743;52.262;6.172;2023-07-22T04:41:51;100002.09;;;13.84
24586;BMP280;12743;52.262;6.172;2023-07-22T04:44:19;99995.75;;;13.88
24586;BMP280;12743;52.262;6.172;2023-07-22T04:46:46;99997.66;;;13.91
24586;BMP280;12743;52.262;6.172;2023-07-22T04:49:12;100002.16;;;13.87
24586;BMP280;12743;52.262;6.172;2023-07-22T04:51:40;99986.69;;;13.89
24586;BMP280;12743;52.262;6.172;2023-07-22T04:54:07;99993.91;;;13.92
24586;BMP280;12743;52.262;6.172;2023-07-22T04:56:33;99974.97;;;13.87
24586;BMP280;12743;52.262;6.172;2023-07-22T04:59:00;100006.88;;;14.11
24586;BMP280;12743;52.262;6.172;2023-07-22T05:01:27;100024.63;;;14.14
24586;BMP280;12743;52.262;6.172;2023-07-22T05:03:54;100006.97;;;14.18
24586;BMP280;12743;52.262;6.172;2023-07-22T05:06:21;99970.22;;;13.99
24586;BMP280;12743;52.262;6.172;2023-07-22T05:08:48;99984.31;;;14.17
24586;BMP280;12743;52.262;6.172;2023-07-22T05:11:15;99971.81;;;14.14
24586;BMP280;12743;52.262;6.172;2023-07-22T05:13:41;99970.25;;;14.06
24586;BMP280;12743;52.262;6.172;2023-07-22T05:16:08;99977.91;;;14.18
24586;BMP280;12743;52.262;6.172;2023-07-22T05:18:34;99970.38;;;14.24
24586;BMP280;12743;52.262;6.172;2023-07-22T05:21:01;99966.19;;;14.16
24586;BMP280;12743;52.262;6.172;2023-07-22T05:23:28;99973.44;;;14.29
24586;BMP280;12743;52.262;6.172;2023-07-22T05:25:55;99959.84;;;14.31
24586;BMP280;12743;52.262;6.172;2023-07-22T05:28:21;99929.09;;;14.02
24586;BMP280;12743;52.262;6.172;2023-07-22T05:30:50;99961.69;;;14.23
24586;BMP280;12743;52.262;6.172;2023-07-22T05:33:17;99958.03;;;14.38
24586;BMP280;12743;52.262;6.172;2023-07-22T05:35:44;99960.59;;;14.28
24586;BMP280;12743;52.262;6.172;2023-07-22T05:38:14;99972.03;;;14.49
24586;BMP280;12743;52.262;6.172;2023-07-22T05:40:41;99953.47;;;14.32
24586;BMP280;12743;52.262;6.172;2023-07-22T05:43:07;99943.28;;;14.37
24586;BMP280;12743;52.262;6.172;2023-07-22T05:45:34;99926.38;;;14.42
24586;BMP280;12743;52.262;6.172;2023-07-22T05:48:00;99951.66;;;14.50
24586;BMP280;12743;52.262;6.172;2023-07-22T05:50:27;99933.59;;;14.52
24586;BMP280;12743;52.262;6.172;2023-07-22T05:52:54;99947.31;;;14.75
24586;BMP280;12743;52.262;6.172;2023-07-22T05:55:20;99940.53;;;14.81
24586;BMP280;12743;52.262;6.172;2023-07-22T05:57:47;99908.00;;;14.70
24586;BMP280;12743;52.262;6.172;2023-07-22T06:00:14;99930.34;;;14.90
24586;BMP280;12743;52.262;6.172;2023-07-22T06:02:40;99936.06;;;14.99
24586;BMP280;12743;52.262;6.172;2023-07-22T06:05:07;99931.50;;;14.93
24586;BMP280;12743;52.262;6.172;2023-07-22T06:07:34;99923.22;;;15.12
24586;BMP280;12743;52.262;6.172;2023-07-22T06:10:01;99948.22;;;15.21
24586;BMP280;12743;52.262;6.172;2023-07-22T06:12:28;99941.41;;;15.20
24586;BMP280;12743;52.262;6.172;2023-07-22T06:14:55;99940.25;;;15.18
24586;BMP280;12743;52.262;6.172;2023-07-22T06:17:22;99939.47;;;15.03
24586;BMP280;12743;52.262;6.172;2023-07-22T06:19:48;99937.63;;;15.14
24586;BMP280;12743;52.262;6.172;2023-07-22T06:22:15;99940.63;;;15.23
24586;BMP280;12743;52.262;6.172;2023-07-22T06:24:41;99935.34;;;15.20
24586;BMP280;12743;52.262;6.172;2023-07-22T06:27:08;99934.63;;;15.26
24586;BMP280;12743;52.262;6.172;2023-07-22T06:29:35;99902.81;;;15.05
24586;BMP280;12743;52.262;6.172;2023-07-22T06:32:01;99932.00;;;15.34
24586;BMP280;12743;52.262;6.172;2023-07-22T06:34:28;99932.75;;;15.41
24586;BMP280;12743;52.262;6.172;2023-07-22T06:36:55;99929.38;;;15.48
24586;BMP280;12743;52.262;6.172;2023-07-22T06:39:21;99925.19;;;15.57
24586;BMP280;12743;52.262;6.172;2023-07-22T06:41:48;99927.88;;;15.64
24586;BMP280;12743;52.262;6.172;2023-07-22T06:44:15;99916.50;;;15.67
24586;BMP280;12743;52.262;6.172;2023-07-22T06:46:41;99931.25;;;15.75
24586;BMP280;12743;52.262;6.172;2023-07-22T06:49:08;99916.88;;;15.80
24586;BMP280;12743;52.262;6.172;2023-07-22T06:51:35;99927.84;;;15.85
24586;BMP280;12743;52.262;6.172;2023-07-22T06:54:02;99942.97;;;15.95
24586;BMP280;12743;52.262;6.172;2023-07-22T06:56:29;99946.78;;;15.80
24586;BMP280;12743;52.262;6.172;2023-07-22T06:58:56;99951.28;;;15.73
24586;BMP280;12743;52.262;6.172;2023-07-22T07:01:23;99942.97;;;15.99
24586;BMP280;12743;52.262;6.172;2023-07-22T07:03:50;99949.38;;;16.05
24586;BMP280;12743;52.262;6.172;2023-07-22T07:06:17;99945.97;;;16.04
24586;BMP280;12743;52.262;6.172;2023-07-22T07:08:43;99962.59;;;16.26
24586;BMP280;12743;52.262;6.172;2023-07-22T07:11:10;99965.53;;;16.63
24586;BMP280;12743;52.262;6.172;2023-07-22T07:13:37;99987.09;;;16.69
24586;BMP280;12743;52.262;6.172;2023-07-22T07:16:23;100001.81;;;16.84
24586;BMP280;12743;52.262;6.172;2023-07-22T07:18:52;100011.56;;;17.12
24586;BMP280;12743;52.262;6.172;2023-07-22T07:21:19;100029.66;;;17.27
24586;BMP280;12743;52.262;6.172;2023-07-22T07:23:45;100035.44;;;17.08
24586;BMP280;12743;52.262;6.172;2023-07-22T07:26:12;100031.25;;;17.21
24586;BMP280;12743;52.262;6.172;2023-07-22T07:28:39;100047.44;;;17.37
24586;BMP280;12743;52.262;6.172;2023-07-22T07:31:05;100076.63;;;17.41
24586;BMP280;12743;52.262;6.172;2023-07-22T07:33:33;100041.88;;;17.11
24586;BMP280;12743;52.262;6.172;2023-07-22T07:36:00;100057.38;;;17.30
24586;BMP280;12743;52.262;6.172;2023-07-22T07:38:27;100137.69;;;17.41
24586;BMP280;12743;52.262;6.172;2023-07-22T07:41:05;100162.44;;;17.96
24586;BMP280;12743;52.262;6.172;2023-07-22T07:43:35;100183.50;;;17.62
24586;BMP280;12743;52.262;6.172;2023-07-22T07:46:22;100183.03;;;17.81
24586;BMP280;12743;52.262;6.172;2023-07-22T07:48:54;100220.78;;;18.14
24586;BMP280;12743;52.262;6.172;2023-07-22T07:51:22;100220.84;;;18.07
24586;BMP280;12743;52.262;6.172;2023-07-22T07:53:50;100229.25;;;17.95
24586;BMP280;12743;52.262;6.172;2023-07-22T07:56:18;100242.56;;;17.91
24586;BMP280;12743;52.262;6.172;2023-07-22T07:58:46;100250.84;;;18.00
24586;BMP280;12743;52.262;6.172;2023-07-22T08:01:13;100297.19;;;17.96
24586;BMP280;12743;52.262;6.172;2023-07-22T08:03:40;100311.63;;;17.98
24586;BMP280;12743;52.262;6.172;2023-07-22T08:06:12;100338.84;;;18.27
24586;BMP280;12743;52.262;6.172;2023-07-22T08:08:39;100350.06;;;18.52
24586;BMP280;12743;52.262;6.172;2023-07-22T08:11:08;100374.41;;;18.54
24586;BMP280;12743;52.262;6.172;2023-07-22T08:13:35;100370.44;;;18.79
24586;BMP280;12743;52.262;6.172;2023-07-22T08:16:07;100411.75;;;18.98
24586;BMP280;12743;52.262;6.172;2023-07-22T08:18:34;100401.41;;;19.11
24586;BMP280;12743;52.262;6.172;2023-07-22T08:21:02;100400.84;;;18.82
24586;BMP280;12743;52.262;6.172;2023-07-22T08:23:30;100406.19;;;18.75
24586;BMP280;12743;52.262;6.172;2023-07-22T08:25:56;100410.69;;;18.85
24586;BMP280;12743;52.262;6.172;2023-07-22T08:28:23;100426.81;;;18.60
24586;BMP280;12743;52.262;6.172;2023-07-22T08:30:50;100437.22;;;18.99
24586;BMP280;12743;52.262;6.172;2023-07-22T08:33:16;100489.03;;;18.84
24586;BMP280;12743;52.262;6.172;2023-07-22T08:35:56;100465.66;;;19.13
24586;BMP280;12743;52.262;6.172;2023-07-22T08:38:23;100470.59;;;19.14
24586;BMP280;12743;52.262;6.172;2023-07-22T08:40:50;100497.91;;;19.25
24586;BMP280;12743;52.262;6.172;2023-07-22T08:43:21;100484.63;;;19.18
24586;BMP280;12743;52.262;6.172;2023-07-22T08:45:50;100495.28;;;19.18
24586;BMP280;12743;52.262;6.172;2023-07-22T08:48:18;100499.13;;;19.17
24586;BMP280;12743;52.262;6.172;2023-07-22T08:50:51;100498.34;;;19.17
24586;BMP280;12743;52.262;6.172;2023-07-22T08:53:18;100501.47;;;19.01
24586;BMP280;12743;52.262;6.172;2023-07-22T08:55:48;100511.69;;;19.13
24586;BMP280;12743;52.262;6.172;2023-07-22T08:58:14;100505.75;;;19.46
24586;BMP280;12743;52.262;6.172;2023-07-22T09:00:43;100523.09;;;19.17
24586;BMP280;12743;52.262;6.172;2023-07-22T09:03:11;100522.59;;;19.33
24586;BMP280;12743;52.262;6.172;2023-07-22T09:05:38;100513.56;;;19.16
24586;BMP280;12743;52.262;6.172;2023-07-22T09:08:07;100526.00;;;19.33
24586;BMP280;12743;52.262;6.172;2023-07-22T09:10:34;100528.22;;;19.42
24586;BMP280;12743;52.262;6.172;2023-07-22T09:13:02;100511.28;;;19.69
24586;BMP280;12743;52.262;6.172;2023-07-22T09:15:31;100541.28;;;19.19
24586;BMP280;12743;52.262;6.172;2023-07-22T09:18:00;100534.84;;;19.20
24586;BMP280;12743;52.262;6.172;2023-07-22T09:20:27;100521.44;;;19.37
24586;BMP280;12743;52.262;6.172;2023-07-22T09:22:55;100522.97;;;19.31
24586;BMP280;12743;52.262;6.172;2023-07-22T09:25:39;100521.28;;;19.55
24586;BMP280;12743;52.262;6.172;2023-07-22T09:28:06;100522.47;;;19.50
24586;BMP280;12743;52.262;6.172;2023-07-22T09:30:34;100512.72;;;19.77
24586;BMP280;12743;52.262;6.172;2023-07-22T09:33:03;100524.13;;;19.82
24586;BMP280;12743;52.262;6.172;2023-07-22T09:35:52;100528.00;;;19.73
24586;BMP280;12743;52.262;6.172;2023-07-22T09:38:25;100520.97;;;19.46
24586;BMP280;12743;52.262;6.172;2023-07-22T09:40:52;100512.06;;;19.66
24586;BMP280;12743;52.262;6.172;2023-07-22T09:43:21;100526.53;;;19.65
24586;BMP280;12743;52.262;6.172;2023-07-22T09:45:49;100532.88;;;19.82
24586;BMP280;12743;52.262;6.172;2023-07-22T09:48:15;100521.97;;;19.66
24586;BMP280;12743;52.262;6.172;2023-07-22T09:50:43;100552.09;;;19.59
24586;BMP280;12743;52.262;6.172;2023-07-22T09:53:14;100555.47;;;19.67
24586;BMP280;12743;52.262;6.172;2023-07-22T09:55:43;100550.81;;;19.78
24586;BMP280;12743;52.262;6.172;2023-07-22T09:58:10;100557.66;;;19.79
24586;BMP280;12743;52.262;6.172;2023-07-22T10:00:42;100550.16;;;20.08
24586;BMP280;12743;52.262;6.172;2023-07-22T10:03:12;100548.03;;;19.89
24586;BMP280;12743;52.262;6.172;2023-07-22T10:05:45;100533.34;;;19.73
24586;BMP280;12743;52.262;6.172;2023-07-22T10:08:14;100572.88;;;19.75
24586;BMP280;12743;52.262;6.172;2023-07-22T10:10:44;100578.81;;;20.00
24586;BMP280;12743;52.262;6.172;2023-07-22T10:13:11;100577.88;;;20.14
24586;BMP280;12743;52.262;6.172;2023-07-22T10:15:38;100591.00;;;19.98
24586;BMP280;12743;52.262;6.172;2023-07-22T10:18:05;100603.72;;;19.79
24586;BMP280;12743;52.262;6.172;2023-07-22T10:20:32;100579.94;;;19.48
24586;BMP280;12743;52.262;6.172;2023-07-22T10:23:03;100576.16;;;19.42
24586;BMP280;12743;52.262;6.172;2023-07-22T10:25:30;100558.34;;;19.32
24586;BMP280;12743;52.262;6.172;2023-07-22T10:27:57;100562.19;;;19.31
24586;BMP280;12743;52.262;6.172;2023-07-22T10:30:24;100540.50;;;19.29
24586;BMP280;12743;52.262;6.172;2023-07-22T10:32:53;100534.41;;;19.28
24586;BMP280;12743;52.262;6.172;2023-07-22T10:38:07;100544.22;;;19.38
24586;BMP280;12743;52.262;6.172;2023-07-22T10:40:45;100553.28;;;19.51
24586;BMP280;12743;52.262;6.172;2023-07-22T10:43:15;100567.84;;;19.40
24586;BMP280;12743;52.262;6.172;2023-07-22T10:45:43;100566.22;;;19.53
24586;BMP280;12743;52.262;6.172;2023-07-22T10:48:15;100540.03;;;19.41
24586;BMP280;12743;52.262;6.172;2023-07-22T10:50:49;100558.97;;;19.53
24586;BMP280;12743;52.262;6.172;2023-07-22T11:12:02;100559.06;;;19.91
24586;BMP280;12743;52.262;6.172;2023-07-22T11:14:34;100576.97;;;19.94
24586;BMP280;12743;52.262;6.172;2023-07-22T11:17:02;100577.25;;;20.03
24586;BMP280;12743;52.262;6.172;2023-07-22T11:19:32;100579.28;;;19.85
24586;BMP280;12743;52.262;6.172;2023-07-22T11:22:02;100574.34;;;19.87
24586;BMP280;12743;52.262;6.172;2023-07-22T11:24:29;100576.00;;;19.66
24586;BMP280;12743;52.262;6.172;2023-07-22T11:26:56;100569.16;;;19.69
24586;BMP280;12743;52.262;6.172;2023-07-22T11:29:22;100581.44;;;19.56
24586;BMP280;12743;52.262;6.172;2023-07-22T11:31:50;100567.63;;;19.68
24586;BMP280;12743;52.262;6.172;2023-07-22T11:34:23;100587.28;;;19.85
24586;BMP280;12743;52.262;6.172;2023-07-22T11:36:51;100584.66;;;19.81
24586;BMP280;12743;52.262;6.172;2023-07-22T11:39:21;100569.13;;;19.72
24586;BMP280;12743;52.262;6.172;2023-07-22T11:41:49;100567.56;;;19.75
24586;BMP280;12743;52.262;6.172;2023-07-22T11:44:18;100566.78;;;19.78
24586;BMP280;12743;52.262;6.172;2023-07-22T11:46:59;100567.56;;;19.75
24586;BMP280;12743;52.262;6.172;2023-07-22T11:49:29;100567.06;;;19.39
24586;BMP280;12743;52.262;6.172;2023-07-22T11:52:02;100556.03;;;19.41
24586;BMP280;12743;52.262;6.172;2023-07-22T11:54:30;100578.16;;;19.34
24586;BMP280;12743;52.262;6.172;2023-07-22T11:56:57;100436.41;;;19.09
24586;BMP280;12743;52.262;6.172;2023-07-22T11:59:35;100412.25;;;18.79
24586;BMP280;12743;52.262;6.172;2023-07-22T12:02:02;100371.69;;;18.61
24586;BMP280;12743;52.262;6.172;2023-07-22T12:04:33;100372.75;;;18.77
24586;BMP280;12743;52.262;6.172;2023-07-22T12:07:01;100364.38;;;18.75
24586;BMP280;12743;52.262;6.172;2023-07-22T12:09:28;100366.25;;;18.78
24586;BMP280;12743;52.262;6.172;2023-07-22T12:11:59;100360.50;;;18.87
24586;BMP280;12743;52.262;6.172;2023-07-22T12:14:33;100384.47;;;18.83
24586;BMP280;12743;52.262;6.172;2023-07-22T12:17:01;100359.72;;;18.94
24586;BMP280;12743;52.262;6.172;2023-07-22T12:19:28;100396.25;;;18.86
24586;BMP280;12743;52.262;6.172;2023-07-22T12:21:56;100382.41;;;19.05
24586;BMP280;12743;52.262;6.172;2023-07-22T12:24:23;100332.19;;;19.11
24586;BMP280;12743;52.262;6.172;2023-07-22T12:26:50;100376.97;;;19.19
24586;BMP280;12743;52.262;6.172;2023-07-22T12:29:17;100401.00;;;19.12
24586;BMP280;12743;52.262;6.172;2023-07-22T12:31:43;100385.84;;;19.09
24586;BMP280;12743;52.262;6.172;2023-07-22T12:34:10;100369.97;;;19.39
24586;BMP280;12743;52.262;6.172;2023-07-22T12:36:36;100346.50;;;19.27
24586;BMP280;12743;52.262;6.172;2023-07-22T12:39:03;100409.66;;;19.27
24586;BMP280;12743;52.262;6.172;2023-07-22T12:41:31;100426.94;;;19.49
24586;BMP280;12743;52.262;6.172;2023-07-22T12:43:57;100418.53;;;19.54
24586;BMP280;12743;52.262;6.172;2023-07-22T12:46:24;100385.84;;;19.50
24586;BMP280;12743;52.262;6.172;2023-07-22T12:48:51;100394.59;;;19.50
24586;BMP280;12743;52.262;6.172;2023-07-22T12:51:17;100418.66;;;19.80
24586;BMP280;12743;52.262;6.172;2023-07-22T12:53:44;100414.13;;;19.37
24586;BMP280;12743;52.262;6.172;2023-07-22T12:56:11;100430.06;;;19.44
24586;BMP280;12743;52.262;6.172;2023-07-22T12:58:37;100412.03;;;19.18
24586;BMP280;12743;52.262;6.172;2023-07-22T13:01:04;100388.91;;;19.48
24586;BMP280;12743;52.262;6.172;2023-07-22T13:03:30;100407.38;;;19.25
24586;BMP280;12743;52.262;6.172;2023-07-22T13:05:57;100356.81;;;19.22
24586;BMP280;12743;52.262;6.172;2023-07-22T13:08:24;100264.03;;;18.76
24586;BMP280;12743;52.262;6.172;2023-07-22T13:10:50;100205.72;;;18.55
24586;BMP280;12743;52.262;6.172;2023-07-22T13:13:17;100130.31;;;18.28
24586;BMP280;12743;52.262;6.172;2023-07-22T13:15:44;100101.19;;;18.14
24586;BMP280;12743;52.262;6.172;2023-07-22T13:18:10;100033.59;;;18.15
24586;BMP280;12743;52.262;6.172;2023-07-22T13:20:40;99985.72;;;18.18
24586;BMP280;12743;52.262;6.172;2023-07-22T13:23:06;99959.69;;;18.03
24586;BMP280;12743;52.262;6.172;2023-07-22T13:25:33;99938.06;;;18.01
24586;BMP280;12743;52.262;6.172;2023-07-22T13:28:00;99955.28;;;17.89
24586;BMP280;12743;52.262;6.172;2023-07-22T13:30:26;99924.47;;;17.95
24586;BMP280;12743;52.262;6.172;2023-07-22T13:32:53;99927.25;;;18.22
24586;BMP280;12743;52.262;6.172;2023-07-22T13:35:19;99958.59;;;18.34
24586;BMP280;12743;52.262;6.172;2023-07-22T13:37:46;99954.41;;;18.36
24586;BMP280;12743;52.262;6.172;2023-07-22T13:40:13;99943.22;;;18.18
24586;BMP280;12743;52.262;6.172;2023-07-22T13:42:40;99948.06;;;18.23
24586;BMP280;12743;52.262;6.172;2023-07-22T13:45:06;99941.72;;;18.14
24586;BMP280;12743;52.262;6.172;2023-07-22T13:47:33;99941.75;;;18.10
24586;BMP280;12743;52.262;6.172;2023-07-22T13:50:00;99927.50;;;18.31
24586;BMP280;12743;52.262;6.172;2023-07-22T13:52:27;99955.56;;;17.98
24586;BMP280;12743;52.262;6.172;2023-07-22T13:54:53;99946.47;;;17.96
24586;BMP280;12743;52.262;6.172;2023-07-22T13:57:20;99933.06;;;18.06
24586;BMP280;12743;52.262;6.172;2023-07-22T13:59:46;99946.53;;;18.26
24586;BMP280;12743;52.262;6.172;2023-07-22T14:02:13;99967.28;;;18.38
24586;BMP280;12743;52.262;6.172;2023-07-22T14:04:40;99957.94;;;18.23
24586;BMP280;12743;52.262;6.172;2023-07-22T14:07:06;99980.41;;;18.18
24586;BMP280;12743;52.262;6.172;2023-07-22T14:09:33;99970.34;;;18.36
24586;BMP280;12743;52.262;6.172;2023-07-22T14:11:59;100001.88;;;18.71
24586;BMP280;12743;52.262;6.172;2023-07-22T14:14:26;100007.59;;;18.33
24586;BMP280;12743;52.262;6.172;2023-07-22T14:16:56;99968.91;;;18.32
24586;BMP280;12743;52.262;6.172;2023-07-22T14:19:23;99985.41;;;18.46
24586;BMP280;12743;52.262;6.172;2023-07-22T14:21:50;99989.16;;;18.52
24586;BMP280;12743;52.262;6.172;2023-07-22T14:24:17;100000.56;;;18.53